Time;durP1;ratioP1;P1;durP2;ratioP2;P2;SDS_P1;SDS_P2;PMS_P1;PMS_P2;Temp;Humidity;BMP_temperature;BMP_pressure;BME280_temperature;BME280_humidity;BME280_pressure;Samples;Min_cycle;Max_cycle;Signal;HPM_P1;HPM_P2
2021/01/03 00:00:28;;;;;;;0.40;0.40;;;;;;;1.07;88.01;101243.69;5104671;28;20016;-64
2021/01/03 00:02:54;;;;;;;0.50;0.50;;;;;;;1.06;88.03;101235.13;5104639;28;20028;-64
2021/01/03 00:05:24;;;;;;;1.02;1.02;;;;;;;1.11;88.33;101246.44;5120200;28;20034;-63
2021/01/03 00:07:50;;;;;;;0.40;0.40;;;;;;;1.14;88.45;101240.56;5104723;28;20107;-63
2021/01/03 00:10:16;;;;;;;0.43;0.43;;;;;;;1.16;88.39;101246.66;5104446;28;20017;-64
2021/01/03 00:12:42;;;;;;;0.40;0.40;;;;;;;1.18;88.49;101250.13;5104804;28;20020;-64
2021/01/03 00:15:11;;;;;;;0.40;0.40;;;;;;;1.19;88.63;101244.22;5103434;28;20020;-64
2021/01/03 00:17:38;;;;;;;0.50;0.50;;;;;;;1.30;88.60;101251.47;5102132;28;20044;-63
2021/01/03 00:20:09;;;;;;;0.40;0.40;;;;;;;1.35;88.44;101265.34;5104468;28;20079;-64
2021/01/03 00:22:34;;;;;;;0.40;0.40;;;;;;;1.35;88.36;101261.13;5104536;28;20020;-64
2021/01/03 00:25:00;;;;;;;0.40;0.40;;;;;;;1.36;88.45;101267.97;5104271;28;20551;-64
2021/01/03 00:27:25;;;;;;;0.40;0.40;;;;;;;1.42;88.45;101271.63;5104184;28;20028;-63
2021/01/03 00:29:50;;;;;;;0.40;0.40;;;;;;;1.46;88.56;101273.47;5104145;28;20016;-63
2021/01/03 00:32:16;;;;;;;0.45;0.45;;;;;;;1.49;88.45;101271.06;5103952;28;20027;-64
2021/01/03 00:34:41;;;;;;;0.60;0.60;;;;;;;1.56;88.13;101285.00;5104268;28;20028;-64
2021/01/03 00:37:07;;;;;;;0.40;0.40;;;;;;;1.55;88.19;101288.38;5104187;28;20054;-63
2021/01/03 00:39:32;;;;;;;0.40;0.40;;;;;;;1.56;88.22;101290.13;5103938;28;20040;-64
2021/01/03 00:41:57;;;;;;;0.40;0.40;;;;;;;1.54;87.97;101297.72;5104182;28;20040;-64
2021/01/03 00:44:23;;;;;;;0.40;0.40;;;;;;;1.50;87.89;101295.88;5104010;28;20028;-64
2021/01/03 00:46:48;;;;;;;0.40;0.40;;;;;;;1.45;87.72;101297.34;5103711;28;20028;-63
2021/01/03 00:49:14;;;;;;;0.50;0.50;;;;;;;1.50;87.55;101307.78;5104009;28;20035;-63
2021/01/03 00:51:39;;;;;;;0.63;0.63;;;;;;;1.43;87.73;101312.63;5103742;28;20103;-63
2021/01/03 00:54:04;;;;;;;0.40;0.40;;;;;;;1.44;87.70;101310.91;5104114;28;20031;-64
2021/01/03 00:56:30;;;;;;;0.45;0.45;;;;;;;1.43;87.93;101316.84;5104031;28;20531;-63
2021/01/03 00:58:55;;;;;;;0.32;0.32;;;;;;;1.39;87.91;101318.41;5103667;28;20045;-62
2021/01/03 01:01:21;;;;;;;0.40;0.40;;;;;;;1.42;87.79;101323.66;5103658;28;20103;-62
2021/01/03 01:03:48;;;;;;;0.40;0.40;;;;;;;1.39;87.77;101323.50;5103833;28;20027;-63
2021/01/03 01:06:13;;;;;;;0.40;0.40;;;;;;;1.39;87.82;101328.63;5103645;28;20032;-63
2021/01/03 01:08:39;;;;;;;0.45;0.45;;;;;;;1.40;87.75;101335.53;5103589;28;20047;-64
2021/01/03 01:11:06;;;;;;;0.43;0.43;;;;;;;1.38;87.76;101332.00;5103817;28;20500;-63
2021/01/03 01:13:32;;;;;;;0.35;0.35;;;;;;;1.36;87.77;101333.63;5103520;28;20094;-63
2021/01/03 01:15:57;;;;;;;0.40;0.40;;;;;;;1.36;87.69;101343.84;5103429;28;20030;-63
2021/01/03 01:18:22;;;;;;;1.02;1.02;;;;;;;1.27;87.46;101334.09;5103394;28;20047;-63
2021/01/03 01:20:48;;;;;;;1.30;1.30;;;;;;;1.29;87.69;101352.06;5103391;28;20301;-64
2021/01/03 01:23:14;;;;;;;0.40;0.40;;;;;;;1.27;87.77;101338.31;5118993;28;20054;-64
2021/01/03 01:25:39;;;;;;;0.40;0.40;;;;;;;1.26;87.69;101351.94;5103118;28;20020;-63
2021/01/03 01:28:05;;;;;;;0.40;0.40;;;;;;;1.29;87.84;101354.63;5103279;28;20020;-63
2021/01/03 01:30:32;;;;;;;0.40;0.40;;;;;;;1.26;87.66;101354.50;5103253;28;20027;-63
2021/01/03 01:32:59;;;;;;;0.40;0.40;;;;;;;1.25;87.66;101360.44;5103065;28;20035;-63
2021/01/03 01:35:29;;;;;;;0.40;0.40;;;;;;;1.25;87.32;101360.44;5103106;28;20147;-63
2021/01/03 01:37:55;;;;;;;3.72;3.42;;;;;;;1.21;87.61;101347.50;5103205;28;20051;-64
2021/01/03 01:40:31;;;;;;;0.40;0.40;;;;;;;1.22;87.63;101356.91;5102935;28;20020;-64
2021/01/03 01:42:56;;;;;;;0.40;0.40;;;;;;;1.22;87.56;101354.34;5103499;28;20075;-64
2021/01/03 01:45:32;;;;;;;0.40;0.40;;;;;;;1.21;87.75;101352.63;5103033;28;20081;-63
2021/01/03 01:48:05;;;;;;;0.40;0.40;;;;;;;1.23;87.72;101360.34;5103154;28;20020;-63
2021/01/03 01:50:37;;;;;;;0.30;0.30;;;;;;;1.26;87.68;101362.16;5103346;28;20028;-64
2021/01/03 01:53:06;;;;;;;0.30;0.30;;;;;;;1.23;87.63;101353.53;5103342;28;20024;-63
2021/01/03 01:55:38;;;;;;;0.40;0.40;;;;;;;1.28;87.82;101353.75;5103200;28;20077;-62
2021/01/03 01:58:36;;;;;;;0.50;0.50;;;;;;;1.26;87.64;101363.06;5103126;28;20506;-63
2021/01/03 02:01:07;;;;;;;0.40;0.40;;;;;;;1.27;87.82;101361.34;5118676;28;20061;-64
2021/01/03 02:03:45;;;;;;;0.52;0.52;;;;;;;1.32;87.93;101368.44;5102949;28;20031;-64
2021/01/03 02:06:16;;;;;;;0.40;0.40;;;;;;;1.36;87.81;101369.44;5102796;28;20027;-63
2021/01/03 02:09:12;;;;;;;0.40;0.40;;;;;;;1.37;87.65;101368.66;5102993;28;20047;-65
2021/01/03 02:11:38;;;;;;;0.40;0.40;;;;;;;1.32;87.43;101362.44;5102846;28;20016;-63
2021/01/03 02:14:05;;;;;;;0.40;0.40;;;;;;;1.33;87.49;101371.84;5103208;28;20050;-65
2021/01/03 02:16:33;;;;;;;0.40;0.40;;;;;;;1.31;87.37;101368.38;5102614;28;20047;-64
2021/01/03 02:18:59;;;;;;;0.40;0.40;;;;;;;1.28;87.51;101365.69;5102932;28;20029;-63
2021/01/03 02:21:36;;;;;;;0.32;0.32;;;;;;;1.29;87.28;101377.66;5102875;28;20041;-64
2021/01/03 02:24:08;;;;;;;0.40;0.40;;;;;;;1.27;87.26;101376.69;5102984;28;20024;-64
2021/01/03 02:26:45;;;;;;;0.40;0.40;;;;;;;1.26;87.33;101374.97;5102758;28;20476;-62
2021/01/03 02:29:13;;;;;;;0.40;0.40;;;;;;;1.22;87.26;101386.72;5102669;28;20256;-63
2021/01/03 02:31:43;;;;;;;0.40;0.40;;;;;;;1.18;87.30;101383.13;5102521;28;20043;-63
2021/01/03 02:34:11;;;;;;;0.40;0.40;;;;;;;1.17;87.36;101383.97;5102797;28;20084;-62
2021/01/03 02:36:50;;;;;;;0.30;0.30;;;;;;;1.15;87.55;101384.72;5102498;28;20024;-62
2021/01/03 02:39:16;;;;;;;0.40;0.40;;;;;;;1.15;87.57;101385.56;5103195;28;20047;-63
2021/01/03 02:41:41;;;;;;;0.30;0.30;;;;;;;1.15;87.71;101388.13;5106271;28;20024;-63
2021/01/03 02:44:07;;;;;;;0.40;0.40;;;;;;;1.19;87.57;101395.16;5106228;28;20107;-63
2021/01/03 02:46:34;;;;;;;0.40;0.40;;;;;;;1.19;87.47;101396.81;5105875;28;20039;-63
2021/01/03 02:48:59;;;;;;;1.15;1.15;;;;;;;1.17;87.44;101394.19;5106161;28;20031;-63
2021/01/03 02:51:33;;;;;;;0.50;0.50;;;;;;;1.17;87.58;101388.19;5104636;28;20024;-63
2021/01/03 02:53:58;;;;;;;0.40;0.40;;;;;;;1.20;87.57;101394.31;5106209;28;20024;-64
2021/01/03 02:56:24;;;;;;;0.40;0.40;;;;;;;1.20;87.66;101396.00;5105919;28;20032;-63
2021/01/03 02:58:49;;;;;;;0.30;0.30;;;;;;;1.20;87.32;101385.78;5105337;28;20043;-63
2021/01/03 03:01:14;;;;;;;0.40;0.40;;;;;;;1.22;87.54;101390.16;5105432;28;20028;-63
2021/01/03 03:03:40;;;;;;;0.40;0.40;;;;;;;1.21;87.52;101396.09;5106168;28;20024;-63
2021/01/03 03:06:05;;;;;;;0.40;0.40;;;;;;;1.21;87.65;101400.34;5105985;28;20059;-63
2021/01/03 03:08:31;;;;;;;0.40;0.40;;;;;;;1.19;87.55;101412.16;5105750;28;20028;-64
2021/01/03 03:10:56;;;;;;;0.40;0.40;;;;;;;1.17;87.59;101400.97;5105780;28;20012;-63
2021/01/03 03:13:21;;;;;;;0.40;0.40;;;;;;;1.15;87.61;101406.03;5105751;28;20031;-65
2021/01/03 03:15:47;;;;;;;0.40;0.40;;;;;;;1.15;87.34;101395.78;5105375;28;20364;-63
2021/01/03 03:18:12;;;;;;;0.35;0.35;;;;;;;1.07;87.53;101398.00;5105544;28;20020;-62
2021/01/03 03:20:37;;;;;;;0.30;0.30;;;;;;;1.09;87.42;101405.75;5105482;28;20099;-65
2021/01/03 03:23:03;;;;;;;0.40;0.40;;;;;;;1.08;87.37;101411.66;5121137;28;20028;-62
2021/01/03 03:25:28;;;;;;;0.30;0.30;;;;;;;1.08;87.39;101414.22;5105430;28;20102;-64
2021/01/03 03:27:54;;;;;;;0.40;0.40;;;;;;;1.06;87.41;101411.59;5105543;28;20020;-62
2021/01/03 03:30:22;;;;;;;0.40;0.40;;;;;;;1.07;87.23;101423.56;5105338;28;20028;-64
2021/01/03 03:32:52;;;;;;;0.40;0.40;;;;;;;1.06;87.34;101426.06;5105007;28;20020;-64
2021/01/03 03:35:19;;;;;;;0.40;0.40;;;;;;;1.05;87.49;101426.88;5120959;28;20170;-64
2021/01/03 03:37:45;;;;;;;1.42;1.40;;;;;;;1.03;87.58;101441.25;5105056;28;20492;-63
2021/01/03 03:40:11;;;;;;;0.35;0.35;;;;;;;1.03;87.28;101439.59;5105399;28;20031;-63
2021/01/03 03:42:36;;;;;;;0.40;0.40;;;;;;;1.01;87.49;101433.50;5105112;28;20056;-64
2021/01/03 03:45:04;;;;;;;0.45;0.45;;;;;;;0.99;87.43;101443.66;5104945;28;20027;-63
2021/01/03 03:47:29;;;;;;;0.40;0.40;;;;;;;0.94;87.36;101437.44;5104698;28;20020;-63
2021/01/03 03:49:56;;;;;;;0.40;0.40;;;;;;;0.90;87.36;101430.44;5105097;28;20256;-64
2021/01/03 03:52:21;;;;;;;0.40;0.40;;;;;;;0.92;87.54;101441.63;5103584;28;20427;-63
2021/01/03 03:54:46;;;;;;;0.38;0.38;;;;;;;0.90;87.45;101444.91;5104864;28;20026;-63
2021/01/03 03:57:12;;;;;;;0.50;0.50;;;;;;;0.91;87.30;101452.66;5104861;28;20050;-63
2021/01/03 03:59:38;;;;;;;0.40;0.40;;;;;;;0.87;87.39;101450.75;5120387;28;20020;-64
2021/01/03 04:02:04;;;;;;;0.40;0.40;;;;;;;0.85;87.48;101442.13;5104096;28;20150;-63
2021/01/03 04:04:29;;;;;;;0.40;0.40;;;;;;;0.93;87.26;101457.84;5104738;28;20023;-64
2021/01/03 04:06:55;;;;;;;0.40;0.40;;;;;;;0.87;87.08;101450.75;5104511;28;20089;-63
2021/01/03 04:09:21;;;;;;;0.50;0.50;;;;;;;0.86;87.27;101451.56;5104536;28;20020;-63
2021/01/03 04:11:48;;;;;;;0.40;0.40;;;;;;;0.83;87.23;101448.88;5104479;28;20030;-63
2021/01/03 04:14:16;;;;;;;0.40;0.40;;;;;;;0.84;87.24;101456.63;5104299;28;20035;-63
2021/01/03 04:16:52;;;;;;;0.40;0.40;;;;;;;0.81;87.29;101463.25;5103941;28;20028;-63
2021/01/03 04:19:18;;;;;;;0.30;0.30;;;;;;;0.83;87.45;101454.84;5104430;28;20043;-63
2021/01/03 04:21:56;;;;;;;0.40;0.40;;;;;;;0.87;87.39;101458.44;5104022;28;20464;-62
2021/01/03 04:24:21;;;;;;;0.52;0.52;;;;;;;0.91;87.44;101467.13;5104434;28;20035;-63
2021/01/03 04:26:56;;;;;;;0.40;0.40;;;;;;;0.92;87.40;101464.66;5102740;28;20016;-63
2021/01/03 04:29:22;;;;;;;0.40;0.40;;;;;;;0.93;87.51;101465.50;5103943;28;20030;-63
2021/01/03 04:31:59;;;;;;;0.40;0.40;;;;;;;0.97;87.37;101467.44;5103980;28;20048;-63
2021/01/03 04:34:25;;;;;;;0.40;0.40;;;;;;;0.97;87.41;101478.53;5104341;28;20024;-64
2021/01/03 04:36:52;;;;;;;0.40;0.40;;;;;;;0.99;87.42;101470.94;5103941;28;20028;-64
2021/01/03 04:39:18;;;;;;;0.40;0.40;;;;;;;1.02;87.43;101465.97;5102406;28;20067;-64
2021/01/03 04:41:44;;;;;;;0.30;0.30;;;;;;;1.05;87.35;101475.47;5103815;28;20028;-63
2021/01/03 04:44:41;;;;;;;0.40;0.40;;;;;;;1.08;87.31;101470.50;5104048;28;20036;-64
2021/01/03 04:47:22;;;;;;;0.40;0.40;;;;;;;1.08;87.08;101483.28;5101111;28;20492;-64
2021/01/03 04:50:16;;;;;;;0.40;0.40;;;;;;;1.10;86.99;101486.81;5103802;28;20028;-63
2021/01/03 04:52:53;;;;;;;0.38;0.38;;;;;;;1.14;86.88;101490.38;5103531;28;20020;-63
2021/01/03 04:55:22;;;;;;;0.40;0.40;;;;;;;1.13;86.76;101492.06;5103455;28;20027;-62
2021/01/03 04:57:58;;;;;;;0.30;0.30;;;;;;;1.13;86.84;101494.63;5103562;28;20504;-64
2021/01/03 05:00:32;;;;;;;0.35;0.35;;;;;;;1.14;86.62;101491.25;5103434;28;20035;-64
2021/01/03 05:03:21;;;;;;;0.35;0.35;;;;;;;1.14;86.84;101495.47;5118813;27;20043;-64
2021/01/03 05:05:51;;;;;;;0.40;0.40;;;;;;;1.15;86.73;101497.25;5103628;28;20027;-64
2021/01/03 05:08:16;;;;;;;0.40;0.40;;;;;;;1.13;86.82;101499.75;5103596;28;20024;-64
2021/01/03 05:10:43;;;;;;;0.30;0.30;;;;;;;1.14;86.59;101498.94;5103276;28;20024;-62
2021/01/03 05:13:35;;;;;;;0.30;0.30;;;;;;;1.13;86.90;101507.41;5103687;28;20020;-63
2021/01/03 05:16:00;;;;;;;0.40;0.40;;;;;;;1.16;86.65;101512.69;5103175;28;20087;-63
2021/01/03 05:18:25;;;;;;;0.40;0.40;;;;;;;1.16;86.56;101522.91;5103183;28;20050;-64
2021/01/03 05:20:56;;;;;;;0.40;0.40;;;;;;;1.15;86.34;101516.00;5103136;28;20035;-64
2021/01/03 05:23:25;;;;;;;0.40;0.40;;;;;;;1.17;86.13;101521.19;5103666;28;20392;-64
2021/01/03 05:25:52;;;;;;;0.40;0.40;;;;;;;1.17;85.99;101529.75;5103254;28;20069;-64
2021/01/03 05:28:29;;;;;;;0.40;0.40;;;;;;;1.14;86.49;101528.72;5103336;28;20502;-64
2021/01/03 05:31:18;;;;;;;0.40;0.40;;;;;;;1.13;86.46;101529.53;5103222;28;20023;-65
2021/01/03 05:33:56;;;;;;;0.35;0.35;;;;;;;1.13;86.35;101534.66;5102925;28;20108;-64
2021/01/03 05:36:50;;;;;;;0.40;0.40;;;;;;;1.13;86.38;101530.44;5103192;28;20034;-64
2021/01/03 05:39:21;;;;;;;0.40;0.40;;;;;;;1.14;86.34;101537.28;5102392;28;20524;-64
2021/01/03 05:41:46;;;;;;;0.45;0.45;;;;;;;1.14;86.25;101528.72;5102095;28;20025;-63
2021/01/03 05:44:34;;;;;;;0.40;0.40;;;;;;;1.16;86.16;101535.69;5102718;28;20530;-63
2021/01/03 05:47:05;;;;;;;0.50;0.50;;;;;;;1.12;86.15;101538.88;5102449;28;20032;-63
2021/01/03 05:49:31;;;;;;;0.40;0.40;;;;;;;1.08;86.24;101537.00;5103332;28;20038;-64
2021/01/03 05:52:22;;;;;;;0.40;0.40;;;;;;;1.06;86.54;101529.25;5102959;28;20098;-63
2021/01/03 05:54:49;;;;;;;0.47;0.47;;;;;;;1.06;86.38;101525.81;5103116;28;20101;-63
2021/01/03 05:57:34;;;;;;;0.40;0.40;;;;;;;1.08;86.36;101543.00;5103048;28;20245;-63
2021/01/03 06:00:14;;;;;;;0.40;0.40;;;;;;;1.08;86.35;101543.00;5102685;28;20088;-63
2021/01/03 06:02:39;;;;;;;0.40;0.40;;;;;;;1.09;86.21;101542.19;5102532;28;20035;-63
2021/01/03 06:05:09;;;;;;;0.40;0.40;;;;;;;1.11;86.27;101542.25;5102723;28;20028;-62
2021/01/03 06:07:35;;;;;;;0.40;0.40;;;;;;;1.11;86.10;101549.94;5102947;28;20031;-63
2021/01/03 06:10:02;;;;;;;0.38;0.38;;;;;;;1.11;85.99;101544.81;5102787;28;20039;-63
2021/01/03 06:12:32;;;;;;;0.40;0.40;;;;;;;1.15;86.06;101551.81;5103042;28;20632;-63
2021/01/03 06:15:05;;;;;;;0.40;0.40;;;;;;;1.15;85.98;101558.66;5104662;28;20023;-63
2021/01/03 06:17:59;;;;;;;0.40;0.40;;;;;;;1.14;86.04;101562.88;5106475;28;20024;-63
2021/01/03 06:20:27;;;;;;;0.40;0.40;;;;;;;1.18;85.86;101569.88;5105235;28;20040;-63
2021/01/03 06:23:07;;;;;;;0.88;0.88;;;;;;;1.17;85.77;101570.69;5106534;28;20042;-63
2021/01/03 06:26:10;;;;;;;0.40;0.40;;;;;;;1.13;86.09;101568.81;5106435;28;20020;-63
2021/01/03 06:28:55;;;;;;;0.40;0.40;;;;;;;1.09;85.73;101578.00;5096511;28;20303;-63
2021/01/03 06:31:21;;;;;;;0.40;0.40;;;;;;;1.05;85.28;101577.78;5106411;28;20016;-63
2021/01/03 06:33:49;;;;;;;0.40;0.40;;;;;;;0.97;85.57;101591.06;5106024;28;20337;-63
2021/01/03 06:36:20;;;;;;;0.40;0.40;;;;;;;0.95;85.36;101590.09;5106076;28;20472;-63
2021/01/03 06:38:54;;;;;;;0.50;0.50;;;;;;;0.92;85.47;101599.28;5106006;28;20071;-63
2021/01/03 06:41:44;;;;;;;0.40;0.40;;;;;;;0.91;85.53;101603.50;5106116;28;20031;-63
2021/01/03 06:44:57;;;;;;;0.40;0.40;;;;;;;0.89;85.58;101597.47;5104629;28;20486;-63
2021/01/03 06:47:25;;;;;;;0.40;0.40;;;;;;;0.88;85.78;101595.69;5082732;28;20098;-63
2021/01/03 06:50:18;;;;;;;0.40;0.40;;;;;;;0.92;85.41;101605.28;5083157;28;20028;-63
2021/01/03 06:53:02;;;;;;;0.30;0.30;;;;;;;0.89;85.70;101599.13;5082968;28;20431;-63
2021/01/03 06:55:50;;;;;;;0.40;0.40;;;;;;;0.88;85.86;101611.03;5083038;28;20051;-63
2021/01/03 06:58:53;;;;;;;1.38;1.38;;;;;;;0.88;85.78;101607.63;5082907;28;20072;-63
2021/01/03 07:01:25;;;;;;;0.30;0.30;;;;;;;0.81;85.52;101609.88;5082790;28;20031;-63
2021/01/03 07:03:53;;;;;;;;;;;;;;;0.84;85.59;101615.13;5083512;28;20036;-63
2021/01/03 07:06:20;;;;;;;0.40;0.40;;;;;;;0.76;85.49;101618.06;5082960;28;19915;-63
2021/01/03 07:08:48;;;;;;;0.40;0.40;;;;;;;0.71;85.67;101631.50;5083208;28;20039;-63
2021/01/03 07:11:38;;;;;;;0.40;0.40;;;;;;;0.70;85.92;101622.06;5082997;28;20580;-63
2021/01/03 07:14:09;;;;;;;0.40;0.40;;;;;;;0.73;86.20;101627.38;5082695;28;20028;-63
2021/01/03 07:16:54;;;;;;;0.40;0.40;;;;;;;0.77;85.99;101630.09;5082533;28;20041;-63
2021/01/03 07:19:32;;;;;;;0.40;0.40;;;;;;;0.74;85.93;101643.56;5082989;28;20025;-62
2021/01/03 07:22:13;;;;;;;0.50;0.50;;;;;;;0.72;85.94;101640.03;5082541;28;20031;-63
2021/01/03 07:24:50;;;;;;;0.40;0.40;;;;;;;0.70;86.02;101641.66;5102154;28;20110;-63
2021/01/03 07:27:25;;;;;;;0.50;0.50;;;;;;;0.71;86.04;101644.28;5105593;28;20024;-62
2021/01/03 07:29:56;;;;;;;0.40;0.40;;;;;;;0.66;86.13;101644.84;5105779;28;20047;-63
2021/01/03 07:32:46;;;;;;;0.50;0.50;;;;;;;0.70;86.41;101651.88;5105398;28;20046;-63
2021/01/03 07:35:20;;;;;;;0.40;0.40;;;;;;;0.66;86.32;101645.72;5105439;28;20024;-63
2021/01/03 07:37:47;;;;;;;0.40;0.40;;;;;;;0.63;86.35;101648.13;5120923;28;20055;-64
2021/01/03 07:40:19;;;;;;;0.38;0.38;;;;;;;0.68;86.47;101658.59;5105305;28;20088;-64
2021/01/03 07:42:44;;;;;;;0.50;0.50;;;;;;;0.67;86.54;101665.34;5105391;28;20079;-63
2021/01/03 07:45:12;;;;;;;0.40;0.40;;;;;;;0.68;86.62;101669.69;5105384;28;20038;-62
2021/01/03 07:47:44;;;;;;;0.40;0.40;;;;;;;0.69;86.63;101668.00;5105109;28;20082;-63
2021/01/03 07:50:31;;;;;;;0.40;0.40;;;;;;;0.67;86.64;101678.13;5105465;28;20031;-63
2021/01/03 07:53:16;;;;;;;0.40;0.40;;;;;;;0.65;86.68;101673.75;5105363;28;20442;-63
2021/01/03 07:55:42;;;;;;;0.40;0.40;;;;;;;0.61;86.78;101676.16;5105146;28;20028;-62
2021/01/03 07:58:13;;;;;;;0.40;0.40;;;;;;;0.65;86.59;101681.44;5105338;28;20028;-62
2021/01/03 08:00:41;;;;;;;0.35;0.35;;;;;;;0.56;86.75;101682.69;5105012;28;20096;-62
2021/01/03 08:03:26;;;;;;;0.32;0.32;;;;;;;0.60;86.70;101688.84;5104382;28;20551;-63
2021/01/03 08:05:52;;;;;;;0.40;0.40;;;;;;;0.60;86.66;101686.28;5104930;28;20028;-63
2021/01/03 08:08:22;;;;;;;0.40;0.40;;;;;;;0.65;86.51;101702.75;5120457;28;20088;-64
2021/01/03 08:10:49;;;;;;;0.40;0.40;;;;;;;0.69;86.35;101711.44;5104467;28;20053;-63
2021/01/03 08:13:24;;;;;;;0.55;0.55;;;;;;;0.71;86.42;101717.53;5104585;28;20024;-63
2021/01/03 08:15:55;;;;;;;0.32;0.32;;;;;;;0.78;85.79;101713.63;5104450;28;20024;-65
2021/01/03 08:18:21;;;;;;;0.40;0.40;;;;;;;0.80;85.87;101735.06;5104405;28;20047;-64
2021/01/03 08:20:49;;;;;;;0.40;0.40;;;;;;;0.82;85.64;101719.00;5104706;28;20016;-64
2021/01/03 08:23:17;;;;;;;0.30;0.30;;;;;;;0.84;85.77;101722.53;5104627;28;20056;-64
2021/01/03 08:25:43;;;;;;;0.40;0.40;;;;;;;0.88;85.67;101733.75;5104432;28;20020;-63
2021/01/03 08:28:16;;;;;;;0.32;0.32;;;;;;;0.91;85.49;101749.28;5104835;28;20087;-64
2021/01/03 08:30:42;;;;;;;0.40;0.40;;;;;;;0.92;84.87;101735.72;5104391;28;20016;-64
2021/01/03 08:33:13;;;;;;;0.40;0.40;;;;;;;0.88;85.14;101727.78;5104000;28;20031;-64
2021/01/03 08:35:38;;;;;;;0.40;0.40;;;;;;;0.98;85.32;101738.59;5104268;28;20053;-64
2021/01/03 08:38:03;;;;;;;0.40;0.40;;;;;;;1.02;85.41;101746.41;5103687;28;20040;-66
2021/01/03 08:40:42;;;;;;;0.40;0.40;;;;;;;1.08;85.43;101757.84;5103745;28;20016;-65
2021/01/03 08:43:19;;;;;;;0.40;0.40;;;;;;;1.09;85.24;101756.16;5104315;28;20047;-64
2021/01/03 08:45:49;;;;;;;0.40;0.40;;;;;;;1.12;85.29;101761.44;5104027;28;20123;-64
2021/01/03 08:48:23;;;;;;;0.40;0.40;;;;;;;1.13;85.14;101763.22;5103790;28;20024;-64
2021/01/03 08:51:00;;;;;;;0.40;0.40;;;;;;;1.11;84.85;101757.13;5104173;28;20564;-66
2021/01/03 08:53:26;;;;;;;0.40;0.40;;;;;;;1.09;84.88;101761.28;5103909;28;20032;-64
2021/01/03 08:56:03;;;;;;;0.40;0.40;;;;;;;1.09;84.91;101767.28;5103550;28;20157;-62
2021/01/03 08:58:35;;;;;;;0.35;0.35;;;;;;;1.13;84.25;101758.09;5103951;28;20052;-64
2021/01/03 09:01:02;;;;;;;0.50;0.50;;;;;;;1.12;84.45;101758.88;5103660;28;20048;-64
2021/01/03 09:03:31;;;;;;;0.30;0.30;;;;;;;1.11;84.50;101754.56;5103633;28;20082;-62
2021/01/03 09:05:56;;;;;;;0.32;0.32;;;;;;;1.13;84.53;101764.88;5119119;28;20119;-63
2021/01/03 09:08:29;;;;;;;0.40;0.40;;;;;;;1.14;84.40;101766.63;5103645;28;20020;-63
2021/01/03 09:11:03;;;;;;;0.40;0.40;;;;;;;1.14;84.48;101767.53;5103918;28;20083;-63
2021/01/03 09:13:29;;;;;;;0.40;0.40;;;;;;;1.14;84.59;101764.97;5103901;28;20052;-64
2021/01/03 09:16:23;;;;;;;0.40;0.40;;;;;;;1.18;84.52;101769.44;5103897;28;20032;-63
2021/01/03 09:19:13;;;;;;;0.40;0.40;;;;;;;1.19;84.90;101770.31;5103634;28;20031;-64
2021/01/03 09:21:54;;;;;;;0.40;0.40;;;;;;;1.22;84.93;101773.03;5103771;28;20027;-63
2021/01/03 09:24:26;;;;;;;0.40;0.40;;;;;;;1.28;84.76;101775.06;5103762;28;20027;-63
2021/01/03 09:26:54;;;;;;;0.40;0.40;;;;;;;1.27;84.97;101774.16;5103543;28;20024;-64
2021/01/03 09:29:40;;;;;;;0.40;0.40;;;;;;;1.28;85.15;101764.81;5103719;28;20058;-62
2021/01/03 09:32:22;;;;;;;0.30;0.30;;;;;;;1.29;84.85;101769.13;5103297;28;20050;-63
2021/01/03 09:35:01;;;;;;;;;;;;;;;1.36;84.59;101769.50;5119789;28;20052;-62
2021/01/03 09:37:32;;;;;;;0.38;0.38;;;;;;;1.30;84.25;101781.09;5103498;28;19932;-63
2021/01/03 09:40:30;;;;;;;0.40;0.40;;;;;;;1.26;84.58;101767.28;5103760;28;20031;-63
2021/01/03 09:43:02;;;;;;;0.40;0.40;;;;;;;1.29;84.61;101776.78;5103686;28;20024;-63
2021/01/03 09:45:55;;;;;;;0.50;0.50;;;;;;;1.35;84.33;101784.78;5103350;28;20072;-64
2021/01/03 09:48:30;;;;;;;0.40;0.40;;;;;;;1.32;84.28;101782.97;5102855;28;20016;-64
2021/01/03 09:51:31;;;;;;;0.40;0.40;;;;;;;1.38;84.58;101782.38;5107142;28;20020;-64
2021/01/03 09:54:09;;;;;;;0.35;0.35;;;;;;;1.36;84.65;101782.31;5100207;28;20028;-63
2021/01/03 09:56:38;;;;;;;0.40;0.40;;;;;;;1.38;84.68;101789.19;5107340;28;20035;-64
2021/01/03 09:59:16;;;;;;;0.38;0.38;;;;;;;1.36;84.21;101783.97;5107582;28;20487;-64
2021/01/03 10:01:43;;;;;;;0.40;0.40;;;;;;;1.39;83.98;101790.97;5107229;28;20020;-63
2021/01/03 10:04:13;;;;;;;0.40;0.40;;;;;;;1.39;84.06;101788.41;5107429;28;20076;-64
2021/01/03 10:06:40;;;;;;;0.40;0.40;;;;;;;1.39;83.76;101793.50;5123005;28;20050;-63
2021/01/03 10:09:26;;;;;;;0.50;0.50;;;;;;;1.31;83.49;101790.56;5106013;28;20040;-63
2021/01/03 10:11:53;;;;;;;0.40;0.40;;;;;;;1.21;83.43;101801.97;5102915;28;20399;-63
2021/01/03 10:14:33;;;;;;;0.40;0.40;;;;;;;1.19;83.14;101812.13;5105499;28;20024;-61
2021/01/03 10:17:16;;;;;;;0.40;0.40;;;;;;;1.18;83.16;101812.91;5106712;28;20032;-64
2021/01/03 10:19:41;;;;;;;0.40;0.40;;;;;;;1.19;83.21;101817.25;5122550;28;20440;-64
2021/01/03 10:22:31;;;;;;;0.40;0.40;;;;;;;1.18;83.21;101815.47;5106083;28;20059;-64
2021/01/03 10:25:02;;;;;;;0.40;0.40;;;;;;;1.20;83.04;101816.44;5106449;28;20031;-64
2021/01/03 10:27:28;;;;;;;0.50;0.50;;;;;;;1.23;81.58;101803.81;5106765;28;20031;-64
2021/01/03 10:29:54;;;;;;;0.40;0.40;;;;;;;1.11;82.03;101804.06;5107163;28;20120;-64
2021/01/03 10:32:19;;;;;;;0.30;0.30;;;;;;;1.12;81.89;101815.16;5106750;28;20027;-64
2021/01/03 10:34:45;;;;;;;0.50;0.50;;;;;;;1.11;82.63;101813.41;5106706;28;20016;-64
2021/01/03 10:37:10;;;;;;;0.40;0.40;;;;;;;1.16;82.53;101819.66;5106809;28;20046;-64
2021/01/03 10:39:36;;;;;;;0.40;0.40;;;;;;;1.14;82.34;101821.25;5106785;28;20046;-66
2021/01/03 10:42:03;;;;;;;0.60;0.60;;;;;;;1.15;82.63;101817.88;5106757;28;20017;-65
2021/01/03 10:44:28;;;;;;;0.40;0.40;;;;;;;1.13;82.85;101813.47;5106648;28;20058;-63
2021/01/03 10:46:55;;;;;;;0.38;0.38;;;;;;;1.18;82.93;101828.25;5106316;28;20028;-63
2021/01/03 10:49:20;;;;;;;0.40;0.40;;;;;;;1.25;82.02;101838.84;5106764;28;20031;-63
2021/01/03 10:51:47;;;;;;;0.40;0.40;;;;;;;1.20;81.43;101828.34;5106480;28;20075;-64
2021/01/03 10:54:22;;;;;;;0.40;0.40;;;;;;;1.16;81.61;101831.56;5106710;28;20044;-64
2021/01/03 10:56:52;;;;;;;0.40;0.40;;;;;;;1.19;81.89;101832.59;5106442;28;20456;-64
2021/01/03 10:59:18;;;;;;;0.40;0.40;;;;;;;1.19;82.25;101817.25;5106566;28;20444;-64
2021/01/03 11:01:45;;;;;;;0.32;0.32;;;;;;;1.21;81.96;101833.56;5105500;28;20020;-61
2021/01/03 11:04:12;;;;;;;0.35;0.35;;;;;;;1.22;81.29;101822.53;5106408;28;20020;-63
2021/01/03 11:06:49;;;;;;;0.40;0.40;;;;;;;1.33;79.93;101832.44;5106476;28;20024;-63
2021/01/03 11:09:26;;;;;;;0.40;0.40;;;;;;;1.18;80.72;101832.53;5106479;28;20028;-63
2021/01/03 11:12:01;;;;;;;2.88;1.50;;;;;;;1.12;81.14;101822.81;5106289;28;20018;-64
2021/01/03 11:14:27;;;;;;;2.55;1.20;;;;;;;1.22;80.94;101832.78;5121675;28;20036;-62
2021/01/03 11:16:54;;;;;;;2.65;1.63;;;;;;;1.22;81.17;101830.22;5105730;28;20023;-62
2021/01/03 11:19:19;;;;;;;2.70;1.55;;;;;;;1.25;81.31;101826.91;5121902;28;20077;-63
2021/01/03 11:21:44;;;;;;;4.07;1.95;;;;;;;1.29;81.35;101831.44;5105731;28;20395;-62
2021/01/03 11:24:11;;;;;;;3.95;1.70;;;;;;;1.29;81.70;101833.09;5106021;28;20103;-63
2021/01/03 11:26:42;;;;;;;2.45;1.27;;;;;;;1.31;81.04;101826.38;5105955;28;20027;-63
2021/01/03 11:29:10;;;;;;;3.17;1.67;;;;;;;1.25;81.31;101826.91;5105904;28;20088;-63
2021/01/03 11:31:42;;;;;;;1.85;1.20;;;;;;;1.18;80.72;101822.28;5105611;28;20080;-63
2021/01/03 11:34:09;;;;;;;1.40;1.20;;;;;;;1.15;80.27;101824.69;5105505;28;20031;-63
2021/01/03 11:36:35;;;;;;;2.63;1.88;;;;;;;1.13;80.69;101826.28;5105522;28;20085;-63
2021/01/03 11:39:05;;;;;;;1.73;1.40;;;;;;;1.18;80.94;101827.41;5105382;28;20129;-63
2021/01/03 11:41:30;;;;;;;2.25;1.42;;;;;;;1.11;80.34;101821.06;5105316;28;20028;-63
2021/01/03 11:43:56;;;;;;;2.15;1.48;;;;;;;1.12;80.68;101825.38;5105350;28;20016;-63
2021/01/03 11:46:21;;;;;;;2.25;1.35;;;;;;;1.13;80.25;101818.59;5105210;28;20336;-63
2021/01/03 11:48:47;;;;;;;1.90;1.10;;;;;;;1.08;80.76;101819.25;5104907;28;20024;-63
2021/01/03 11:51:13;;;;;;;1.80;1.30;;;;;;;1.07;80.41;101827.69;5120936;28;20479;-63
2021/01/03 11:53:38;;;;;;;1.77;1.40;;;;;;;1.10;80.50;101821.88;5105181;28;20030;-63